createdAt,value
2018-03-14T00:00:35.277Z,86.51
2018-03-14T00:03:02.905Z,86.64
2018-03-14T00:05:30.599Z,86.79
2018-03-14T00:07:58.271Z,86.92
2018-03-14T00:10:25.924Z,87.05
2018-03-14T00:13:01.018Z,87.21
2018-03-14T00:15:28.743Z,87.42
2018-03-14T00:17:56.418Z,87.69
2018-03-14T00:20:24.022Z,87.91
2018-03-14T00:22:51.772Z,88.18
2018-03-14T00:25:19.508Z,88.21
2018-03-14T00:27:48.095Z,88.24
2018-03-14T00:30:15.701Z,88.33
2018-03-14T00:32:43.387Z,88.35
2018-03-14T00:35:10.972Z,88.33
2018-03-14T00:37:38.619Z,88.37
2018-03-14T00:40:06.261Z,88.40
2018-03-14T00:42:34.831Z,88.33
2018-03-14T00:45:02.801Z,88.32
2018-03-14T00:47:30.641Z,88.14
2018-03-14T00:49:58.336Z,87.93
2018-03-14T00:52:25.998Z,87.80
2018-03-14T00:54:53.754Z,87.74
2018-03-14T00:57:21.488Z,87.74
2018-03-14T00:59:49.130Z,87.80
2018-03-14T01:02:17.051Z,87.94
2018-03-14T01:04:44.723Z,88.12
2018-03-14T01:07:12.358Z,88.37
2018-03-14T01:09:40.293Z,88.49
2018-03-14T01:12:07.940Z,88.59
2018-03-14T01:14:35.563Z,88.69
2018-03-14T01:17:03.172Z,88.69
2018-03-14T01:19:30.816Z,88.69
2018-03-14T01:21:58.522Z,88.67
2018-03-14T01:24:26.184Z,88.64
2018-03-14T01:26:54.193Z,88.63
2018-03-14T01:29:21.850Z,88.60
2018-03-14T01:31:50.452Z,88.65
2018-03-14T01:34:18.086Z,88.62
2018-03-14T01:36:45.788Z,88.55
2018-03-14T01:39:13.470Z,88.46
2018-03-14T01:41:41.086Z,88.45
2018-03-14T01:44:08.833Z,88.83
2018-03-14T01:46:36.708Z,89.16
2018-03-14T01:49:04.892Z,89.43
2018-03-14T01:51:32.500Z,89.60
2018-03-14T01:54:00.530Z,89.54
2018-03-14T01:56:28.405Z,89.54
2018-03-14T01:58:56.069Z,89.46
2018-03-14T02:01:23.678Z,89.38
2018-03-14T02:03:51.306Z,89.13
2018-03-14T02:06:19.996Z,88.87
2018-03-14T02:08:48.027Z,88.47
2018-03-14T02:11:15.962Z,87.45
2018-03-14T02:13:43.605Z,86.60
2018-03-14T02:16:11.333Z,85.59
2018-03-14T02:18:39.036Z,84.23
2018-03-14T02:21:06.622Z,83.61
2018-03-14T02:23:34.202Z,82.83
2018-03-14T02:26:01.889Z,82.86
2018-03-14T02:28:29.483Z,82.72
2018-03-14T02:30:57.127Z,81.67
2018-03-14T02:33:25.024Z,82.31
2018-03-14T02:35:52.652Z,82.80
2018-03-14T02:38:20.284Z,83.47
2018-03-14T02:40:48.017Z,83.99
2018-03-14T02:43:15.622Z,84.39
2018-03-14T02:45:43.232Z,84.82
2018-03-14T02:48:10.931Z,84.96
2018-03-14T02:50:38.516Z,84.70
2018-03-14T02:53:06.171Z,84.67
2018-03-14T02:55:33.839Z,85.44
2018-03-14T02:58:01.438Z,85.57
2018-03-14T03:00:29.078Z,85.75
2018-03-14T03:02:56.671Z,85.94
2018-03-14T03:05:24.615Z,86.11
2018-03-14T03:07:52.227Z,86.25
2018-03-14T03:10:19.886Z,86.61
2018-03-14T03:15:43.284Z,87.09
2018-03-14T03:18:10.956Z,87.26
2018-03-14T03:20:38.525Z,87.50
2018-03-14T03:23:06.091Z,87.70
2018-03-14T03:25:33.684Z,87.79
2018-03-14T03:28:01.263Z,87.82
2018-03-14T03:30:28.976Z,87.91
2018-03-14T03:32:56.917Z,87.99
2018-03-14T03:35:24.782Z,88.07
2018-03-14T03:37:52.536Z,88.12
2018-03-14T03:40:20.144Z,88.18
2018-03-14T03:42:47.722Z,88.22
2018-03-14T03:45:15.423Z,88.25
2018-03-14T03:47:43.353Z,88.22
2018-03-14T03:50:10.911Z,88.21
2018-03-14T03:52:38.489Z,88.16
2018-03-14T03:55:06.082Z,88.12
2018-03-14T03:57:33.743Z,88.05
2018-03-14T04:00:01.368Z,87.91
2018-03-14T04:02:29.018Z,87.80
2018-03-14T04:04:56.684Z,87.45
2018-03-14T04:07:24.264Z,87.21
2018-03-14T04:09:51.878Z,87.03
2018-03-14T04:12:19.576Z,86.93
2018-03-14T04:14:47.207Z,86.83
2018-03-14T04:17:14.830Z,86.75
2018-03-14T04:19:42.617Z,86.77
2018-03-14T04:22:10.306Z,86.83
2018-03-14T04:24:37.871Z,86.78
2018-03-14T04:27:05.692Z,86.63
2018-03-14T04:29:33.418Z,86.56
2018-03-14T04:32:02.044Z,86.57
2018-03-14T04:34:30.322Z,86.58
2018-03-14T04:36:58.024Z,86.56
2018-03-14T04:39:25.586Z,86.49
2018-03-14T04:41:53.472Z,86.52
2018-03-14T04:44:21.085Z,86.55
2018-03-14T04:46:48.677Z,86.56
2018-03-14T04:49:16.600Z,86.54
2018-03-14T04:51:44.491Z,86.44
2018-03-14T04:54:12.122Z,86.34
2018-03-14T04:56:39.751Z,86.18
2018-03-14T04:59:07.395Z,86.06
2018-03-14T05:01:34.969Z,85.99
2018-03-14T05:04:02.620Z,85.93
2018-03-14T05:06:30.207Z,85.95
2018-03-14T05:08:57.964Z,85.97
2018-03-14T05:11:26.011Z,86.02
2018-03-14T05:13:53.905Z,85.90
2018-03-14T05:16:21.781Z,85.83
2018-03-14T05:18:49.367Z,85.82
2018-03-14T05:21:17.523Z,85.83
2018-03-14T05:23:45.152Z,85.89
2018-03-14T05:26:12.714Z,86.05
2018-03-14T05:28:40.362Z,86.15
2018-03-14T05:31:08.037Z,86.19
2018-03-14T05:33:36.334Z,86.27
2018-03-14T05:36:04.656Z,86.37
2018-03-14T05:38:32.417Z,86.46
2018-03-14T05:41:00.291Z,86.60
2018-03-14T05:43:28.354Z,86.74
2018-03-14T05:45:56.458Z,86.83
2018-03-14T05:48:24.114Z,86.88
2018-03-14T05:50:51.815Z,86.85
2018-03-14T05:53:19.493Z,86.80
2018-03-14T05:55:47.581Z,86.80
2018-03-14T05:58:15.490Z,86.86
2018-03-14T06:00:43.227Z,86.94
2018-03-14T06:03:10.936Z,86.96
2018-03-14T06:05:38.507Z,86.96
2018-03-14T06:08:06.154Z,86.91
2018-03-14T06:10:33.762Z,86.75
2018-03-14T06:13:01.379Z,86.64
2018-03-14T06:15:28.983Z,86.54
2018-03-14T06:17:56.645Z,86.49
2018-03-14T06:20:24.267Z,86.46
2018-03-14T06:22:51.884Z,86.49
2018-03-14T06:25:19.482Z,86.50
2018-03-14T06:27:47.080Z,86.59
2018-03-14T06:30:14.727Z,86.60
2018-03-14T06:32:42.422Z,86.49
2018-03-14T06:35:10.003Z,86.40
2018-03-14T06:37:37.685Z,86.38
2018-03-14T06:40:05.398Z,86.48
2018-03-14T06:42:33.009Z,86.51
2018-03-14T06:45:00.886Z,86.48
2018-03-14T06:47:28.554Z,86.56
2018-03-14T06:49:56.174Z,86.63
2018-03-14T06:52:24.225Z,86.63
2018-03-14T06:54:51.927Z,86.54
2018-03-14T06:57:19.750Z,86.46
2018-03-14T06:59:59.008Z,86.35
2018-03-14T07:02:38.623Z,86.13
2018-03-14T07:05:18.074Z,86.00
2018-03-14T07:07:45.701Z,86.10
2018-03-14T07:10:13.385Z,86.22
2018-03-14T07:12:41.044Z,86.27
2018-03-14T07:15:08.656Z,86.25
2018-03-14T07:17:36.239Z,86.29
2018-03-14T07:20:03.940Z,86.33
2018-03-14T07:22:31.563Z,86.50
2018-03-14T07:24:59.310Z,86.66
2018-03-14T07:27:26.910Z,86.68
2018-03-14T07:29:54.524Z,86.56
2018-03-14T07:32:22.177Z,86.47
2018-03-14T07:34:49.807Z,86.43
2018-03-14T07:37:17.482Z,86.53
2018-03-14T07:39:45.375Z,86.57
2018-03-14T07:42:13.020Z,86.23
2018-03-14T07:44:40.728Z,85.93
2018-03-14T07:47:08.479Z,85.81
2018-03-14T07:49:36.181Z,85.63
2018-03-14T07:52:03.856Z,85.51
2018-03-14T07:54:31.441Z,85.41
2018-03-14T07:56:59.029Z,85.27
2018-03-14T07:59:26.616Z,85.07
2018-03-14T08:01:54.203Z,84.79
2018-03-14T08:04:21.776Z,84.49
2018-03-14T08:06:49.379Z,83.80
2018-03-14T08:09:16.954Z,80.61
2018-03-14T08:11:44.553Z,74.66
2018-03-14T08:14:12.138Z,72.47
2018-03-14T08:16:39.975Z,73.70
2018-03-14T08:19:07.877Z,73.91
2018-03-14T08:21:35.560Z,74.42
2018-03-14T08:24:03.183Z,74.46
2018-03-14T08:26:31.129Z,74.68
2018-03-14T08:28:58.844Z,74.87
2018-03-14T08:31:26.452Z,75.16
2018-03-14T08:33:54.068Z,75.12
2018-03-14T08:36:21.673Z,75.08
2018-03-14T08:38:49.281Z,74.08
2018-03-14T08:41:17.528Z,72.74
2018-03-14T08:43:45.125Z,72.62
2018-03-14T08:46:12.932Z,73.15
2018-03-14T08:48:40.564Z,71.64
2018-03-14T08:51:08.208Z,71.71
2018-03-14T08:53:35.781Z,71.96
2018-03-14T08:56:03.451Z,72.01
2018-03-14T08:58:31.084Z,71.52
2018-03-14T09:00:58.740Z,68.76
2018-03-14T09:03:26.379Z,69.23
2018-03-14T09:05:53.959Z,69.87
2018-03-14T09:08:21.579Z,69.98
2018-03-14T09:10:49.248Z,69.65
2018-03-14T09:13:16.872Z,67.83
2018-03-14T09:15:44.472Z,67.48
2018-03-14T09:18:12.112Z,67.54
2018-03-14T09:20:39.685Z,67.97
2018-03-14T09:23:07.422Z,67.16
2018-03-14T09:25:34.975Z,64.86
2018-03-14T09:28:12.636Z,65.33
2018-03-14T09:30:40.374Z,64.71
2018-03-14T09:33:08.077Z,63.52
2018-03-14T09:35:35.853Z,63.59
2018-03-14T09:38:03.577Z,64.63
2018-03-14T09:40:31.235Z,64.46
2018-03-14T09:42:59.037Z,63.77
2018-03-14T09:45:26.751Z,61.48
2018-03-14T09:47:54.514Z,61.60
2018-03-14T09:50:22.297Z,62.08
2018-03-14T09:52:50.143Z,62.42
2018-03-14T09:55:17.838Z,61.42
2018-03-14T09:57:45.555Z,61.62
2018-03-14T10:00:13.271Z,61.60
2018-03-14T10:02:40.916Z,61.23
2018-03-14T10:05:08.667Z,61.39
2018-03-14T10:07:36.639Z,61.40
2018-03-14T10:10:04.300Z,61.00
2018-03-14T10:12:31.952Z,60.92
2018-03-14T10:14:59.629Z,61.92
2018-03-14T10:17:27.345Z,62.04
2018-03-14T10:19:55.092Z,60.58
2018-03-14T10:22:22.872Z,61.33
2018-03-14T10:24:50.545Z,59.74
2018-03-14T10:27:18.804Z,60.70
2018-03-14T10:29:46.608Z,60.55
2018-03-14T10:32:27.785Z,60.60
2018-03-14T10:34:55.828Z,59.82
2018-03-14T10:37:23.458Z,59.92
2018-03-14T10:39:51.134Z,59.66
2018-03-14T10:42:18.801Z,57.67
2018-03-14T10:44:46.422Z,56.89
2018-03-14T10:47:14.289Z,57.79
2018-03-14T10:49:42.286Z,58.38
2018-03-14T10:52:10.041Z,58.66
2018-03-14T10:54:37.695Z,58.54
2018-03-14T10:57:05.376Z,57.35
2018-03-14T10:59:33.006Z,58.28
2018-03-14T11:02:06.313Z,59.57
2018-03-14T11:04:43.962Z,58.83
2018-03-14T11:07:11.926Z,57.01
2018-03-14T11:09:42.928Z,56.16
2018-03-14T11:12:11.576Z,57.00
2018-03-14T11:14:43.453Z,58.53
2018-03-14T11:17:11.368Z,58.10
2018-03-14T11:19:49.102Z,57.97
2018-03-14T11:22:16.963Z,56.56
2018-03-14T11:24:44.892Z,57.31
2018-03-14T11:27:13.019Z,57.18
2018-03-14T11:29:45.020Z,57.64
2018-03-14T11:32:14.939Z,58.17
2018-03-14T11:34:44.369Z,57.28
2018-03-14T11:37:18.130Z,58.13
2018-03-14T11:39:45.950Z,58.08
2018-03-14T11:42:14.096Z,58.09
2018-03-14T11:44:44.498Z,57.29
2018-03-14T11:47:12.259Z,56.66
2018-03-14T11:49:39.962Z,55.91
2018-03-14T11:52:07.625Z,56.32
2018-03-14T11:54:35.382Z,55.51
2018-03-14T11:57:03.088Z,56.19
2018-03-14T11:59:30.939Z,56.30
2018-03-14T12:01:58.645Z,56.30
2018-03-14T12:04:26.415Z,55.57
2018-03-14T12:06:54.439Z,55.98
2018-03-14T12:09:22.088Z,54.86
2018-03-14T12:11:50.253Z,54.22
2018-03-14T12:14:18.318Z,54.47
2018-03-14T12:16:46.051Z,52.96
2018-03-14T12:19:14.448Z,52.45
2018-03-14T12:21:42.738Z,53.08
2018-03-14T12:24:10.901Z,53.15
2018-03-14T12:26:38.542Z,51.41
2018-03-14T12:29:06.656Z,50.22
2018-03-14T12:31:34.361Z,50.46
2018-03-14T12:34:02.029Z,50.19
2018-03-14T12:36:29.822Z,50.81
2018-03-14T12:38:57.665Z,50.73
2018-03-14T12:41:25.326Z,50.74
2018-03-14T12:43:53.043Z,49.94
2018-03-14T12:46:21.406Z,50.20
2018-03-14T12:48:49.149Z,49.38
2018-03-14T12:51:17.329Z,48.02
2018-03-14T12:53:45.404Z,48.34
2018-03-14T12:56:13.254Z,49.21
2018-03-14T12:58:40.940Z,49.41
2018-03-14T13:01:08.746Z,47.77
2018-03-14T13:03:36.443Z,47.29
2018-03-14T13:06:04.449Z,44.96
2018-03-14T13:08:32.218Z,43.83
2018-03-14T13:11:00.206Z,44.07
2018-03-14T13:13:28.358Z,44.84
2018-03-14T13:15:56.101Z,46.22
2018-03-14T13:18:24.079Z,46.04
2018-03-14T13:20:51.906Z,45.09
2018-03-14T13:23:19.677Z,43.13
2018-03-14T13:25:47.478Z,43.79
2018-03-14T13:28:15.483Z,42.60
2018-03-14T13:30:43.635Z,42.82
2018-03-14T13:33:13.608Z,41.16
2018-03-14T13:35:42.711Z,38.71
2018-03-14T13:38:11.715Z,37.52
2018-03-14T13:40:40.434Z,39.10
2018-03-14T13:43:09.310Z,40.87
2018-03-14T13:45:38.105Z,40.59
2018-03-14T13:48:06.878Z,38.01
2018-03-14T13:50:34.697Z,38.77
2018-03-14T13:53:02.345Z,38.48
2018-03-14T13:55:30.237Z,39.04
2018-03-14T13:57:58.012Z,38.76
2018-03-14T14:00:25.790Z,39.11
2018-03-14T14:02:53.568Z,37.98
2018-03-14T14:05:21.391Z,39.74
2018-03-14T14:07:49.118Z,38.27
2018-03-14T14:10:17.204Z,38.78
2018-03-14T14:12:45.652Z,38.89
2018-03-14T14:15:13.332Z,38.77
2018-03-14T14:17:41.010Z,38.99
2018-03-14T14:20:08.673Z,38.47
2018-03-14T14:22:36.410Z,39.83
2018-03-14T14:25:04.213Z,37.34
2018-03-14T14:27:31.900Z,37.53
2018-03-14T14:29:59.515Z,38.22
2018-03-14T14:32:27.195Z,37.05
2018-03-14T14:34:54.861Z,38.82
2018-03-14T14:37:22.483Z,37.91
2018-03-14T14:39:50.156Z,36.05
2018-03-14T14:42:20.374Z,35.85
2018-03-14T14:44:48.402Z,37.53
2018-03-14T14:47:16.235Z,37.68
2018-03-14T14:49:43.886Z,37.47
2018-03-14T14:52:11.550Z,38.72
2018-03-14T14:54:39.162Z,38.17
2018-03-14T14:57:06.840Z,39.02
2018-03-14T14:59:34.565Z,38.69
2018-03-14T15:02:02.181Z,39.18
2018-03-14T15:04:30.044Z,39.74
2018-03-14T15:06:57.680Z,39.47
2018-03-14T15:09:25.396Z,40.42
2018-03-14T15:11:53.013Z,39.77
2018-03-14T15:14:20.824Z,40.76
2018-03-14T15:16:48.421Z,41.84
2018-03-14T15:19:16.016Z,42.37
2018-03-14T15:21:43.907Z,41.17
2018-03-14T15:24:11.497Z,41.77
2018-03-14T15:26:39.114Z,42.40
2018-03-14T15:29:06.756Z,42.25
2018-03-14T15:31:34.421Z,42.40
2018-03-14T15:34:02.073Z,42.85
2018-03-14T15:36:29.716Z,43.78
2018-03-14T15:38:58.188Z,44.15
2018-03-14T15:41:38.146Z,44.97
2018-03-14T15:44:05.760Z,45.03
2018-03-14T15:46:33.412Z,45.23
2018-03-14T15:49:01.040Z,45.88
2018-03-14T15:51:28.616Z,46.48
2018-03-14T15:53:56.209Z,46.84
2018-03-14T15:56:23.932Z,47.18
2018-03-14T15:58:51.644Z,47.88
2018-03-14T16:01:19.276Z,48.46
2018-03-14T16:03:47.143Z,48.48
2018-03-14T16:06:14.867Z,49.17
2018-03-14T16:08:42.775Z,50.33
2018-03-14T16:11:10.346Z,50.25
2018-03-14T16:13:37.983Z,50.47
2018-03-14T16:16:05.595Z,50.13
2018-03-14T16:18:33.239Z,49.96
2018-03-14T16:21:01.030Z,50.17
2018-03-14T16:23:28.608Z,50.13
2018-03-14T16:25:56.212Z,50.81
2018-03-14T16:28:23.897Z,51.50
2018-03-14T16:30:51.506Z,52.39
2018-03-14T16:33:19.113Z,52.81
2018-03-14T16:35:46.713Z,52.58
2018-03-14T16:38:14.468Z,53.10
2018-03-14T16:40:42.076Z,52.80
2018-03-14T16:43:09.671Z,53.26
2018-03-14T16:45:37.274Z,53.11
2018-03-14T16:48:04.916Z,53.57
2018-03-14T16:50:32.583Z,53.73
2018-03-14T16:53:00.254Z,54.02
2018-03-14T16:55:27.840Z,54.18
2018-03-14T16:57:55.491Z,53.97
2018-03-14T17:00:23.050Z,54.08
2018-03-14T17:02:50.700Z,54.31
2018-03-14T17:05:18.370Z,54.39
2018-03-14T17:07:47.009Z,54.74
2018-03-14T17:10:14.764Z,54.81
2018-03-14T17:12:44.152Z,55.03
2018-03-14T17:15:12.076Z,55.23
2018-03-14T17:17:39.679Z,55.51
2018-03-14T17:20:07.258Z,55.94
2018-03-14T17:22:34.831Z,56.07
2018-03-14T17:25:02.462Z,56.22
2018-03-14T17:27:30.114Z,56.56
2018-03-14T17:29:57.809Z,56.63
2018-03-14T17:32:25.436Z,56.77
2018-03-14T17:34:53.131Z,56.93
2018-03-14T17:37:21.068Z,57.28
2018-03-14T17:39:48.706Z,57.49
2018-03-14T17:42:17.532Z,57.74
2018-03-14T17:44:45.098Z,58.01
2018-03-14T17:47:12.741Z,58.37
2018-03-14T17:49:40.734Z,58.71
2018-03-14T17:52:08.312Z,58.83
2018-03-14T17:54:35.883Z,59.08
2018-03-14T17:57:03.539Z,59.18
2018-03-14T17:59:31.375Z,59.35
2018-03-14T18:01:58.980Z,59.56
2018-03-14T18:04:26.693Z,59.76
2018-03-14T18:06:54.282Z,60.62
2018-03-14T18:09:22.091Z,60.82
2018-03-14T18:11:49.679Z,61.74
2018-03-14T18:14:17.415Z,61.71
2018-03-14T18:16:45.005Z,62.13
2018-03-14T18:19:12.888Z,62.48
2018-03-14T18:21:40.664Z,63.00
2018-03-14T18:24:08.479Z,63.48
2018-03-14T18:26:36.050Z,63.96
2018-03-14T18:29:03.636Z,63.97
2018-03-14T18:31:31.309Z,64.30
2018-03-14T18:33:58.955Z,64.57
2018-03-14T18:36:26.558Z,65.03
2018-03-14T18:38:54.181Z,64.88
2018-03-14T18:41:21.898Z,64.95
2018-03-14T18:43:49.500Z,65.11
2018-03-14T18:46:17.133Z,65.14
2018-03-14T18:48:44.734Z,65.01
2018-03-14T18:51:12.454Z,65.17
2018-03-14T18:53:40.089Z,65.14
2018-03-14T18:56:07.683Z,65.22
2018-03-14T18:58:35.294Z,65.46
2018-03-14T19:01:02.938Z,65.47
2018-03-14T19:03:30.606Z,65.73
2018-03-14T19:05:58.252Z,65.78
2018-03-14T19:08:25.872Z,65.78
2018-03-14T19:10:53.496Z,65.66
2018-03-14T19:13:21.129Z,65.87
2018-03-14T19:15:49.123Z,65.71
2018-03-14T19:18:16.899Z,65.74
2018-03-14T19:20:44.673Z,65.60
2018-03-14T19:23:12.713Z,65.59
2018-03-14T19:25:40.444Z,65.83
2018-03-14T19:28:08.141Z,65.82
2018-03-14T19:30:36.009Z,65.85
2018-03-14T19:33:03.631Z,66.05
2018-03-14T19:35:31.324Z,66.00
2018-03-14T19:37:58.960Z,66.16
2018-03-14T19:40:26.659Z,66.43
2018-03-14T19:42:54.295Z,66.37
2018-03-14T19:45:21.898Z,66.42
2018-03-14T19:47:49.602Z,66.27
2018-03-14T19:50:17.168Z,66.41
2018-03-14T19:52:44.736Z,66.70
2018-03-14T19:55:12.733Z,66.64
2018-03-14T19:57:40.467Z,66.86
2018-03-14T20:00:08.128Z,67.12
2018-03-14T20:02:35.825Z,66.87
2018-03-14T20:05:03.436Z,66.98
2018-03-14T20:07:31.174Z,67.34
2018-03-14T20:09:59.235Z,67.26
2018-03-14T20:12:48.403Z,67.35
2018-03-14T20:15:16.108Z,67.04
2018-03-14T20:17:43.742Z,67.17
2018-03-14T20:20:11.454Z,67.08
2018-03-14T20:25:49.084Z,67.62
2018-03-14T20:28:16.791Z,67.45
2018-03-14T20:30:44.369Z,67.50
2018-03-14T20:33:12.072Z,67.51
2018-03-14T20:35:40.425Z,67.76
2018-03-14T20:38:08.187Z,67.81
2018-03-14T20:40:35.780Z,67.83
2018-03-14T20:43:03.645Z,67.69
2018-03-14T20:45:32.858Z,67.83
2018-03-14T20:48:00.434Z,67.84
2018-03-14T20:50:28.086Z,67.94
2018-03-14T20:52:55.743Z,68.06
2018-03-14T20:55:23.353Z,67.94
2018-03-14T20:57:51.126Z,68.08
2018-03-14T21:00:18.787Z,68.29
2018-03-14T21:02:46.416Z,68.14
2018-03-14T21:05:14.127Z,68.22
2018-03-14T21:07:41.757Z,68.30
2018-03-14T21:10:09.437Z,68.26
2018-03-14T21:12:37.166Z,68.32
2018-03-14T21:15:04.836Z,68.37
2018-03-14T21:17:32.562Z,68.42
2018-03-14T21:20:00.156Z,68.20
2018-03-14T21:22:27.805Z,68.31
2018-03-14T21:24:55.514Z,68.41
2018-03-14T21:27:23.178Z,68.45
2018-03-14T21:29:50.824Z,68.43
2018-03-14T21:32:18.549Z,68.39
2018-03-14T21:34:46.404Z,68.58
2018-03-14T21:37:14.132Z,68.77
2018-03-14T21:39:41.820Z,68.93
2018-03-14T21:42:09.560Z,68.92
2018-03-14T21:44:38.204Z,69.25
2018-03-14T21:47:05.950Z,69.30
2018-03-14T21:49:33.629Z,69.44
2018-03-14T21:52:01.218Z,69.38
2018-03-14T21:54:29.045Z,69.42
2018-03-14T21:56:56.970Z,69.53
2018-03-14T21:59:24.774Z,69.72
2018-03-14T22:01:53.724Z,69.67
2018-03-14T22:04:21.656Z,69.71
2018-03-14T22:06:49.986Z,70.08
2018-03-14T22:09:17.770Z,69.87
2018-03-14T22:11:45.685Z,70.05
2018-03-14T22:14:13.426Z,70.24
2018-03-14T22:16:41.185Z,70.23
2018-03-14T22:19:09.354Z,70.19
2018-03-14T22:21:37.081Z,70.22
2018-03-14T22:24:04.852Z,70.40
2018-03-14T22:26:32.582Z,70.55
2018-03-14T22:29:00.269Z,70.48
2018-03-14T22:31:28.242Z,70.92
2018-03-14T22:33:56.086Z,70.84
2018-03-14T22:36:23.906Z,71.19
2018-03-14T22:38:52.559Z,71.14
2018-03-14T22:41:21.054Z,70.93
2018-03-14T22:43:48.875Z,70.96
2018-03-14T22:46:17.154Z,71.14
2018-03-14T22:48:46.101Z,71.12
2018-03-14T22:51:13.982Z,71.15
2018-03-14T22:53:41.785Z,70.95
2018-03-14T22:56:09.688Z,71.42
2018-03-14T22:58:37.393Z,71.16
2018-03-14T23:01:05.144Z,71.18
2018-03-14T23:03:33.783Z,71.22
2018-03-14T23:06:01.644Z,71.20
2018-03-14T23:08:31.096Z,70.85
2018-03-14T23:10:59.568Z,70.80
2018-03-14T23:13:27.188Z,70.87
2018-03-14T23:15:54.861Z,70.97
2018-03-14T23:18:22.727Z,71.00
2018-03-14T23:20:51.058Z,71.05
2018-03-14T23:23:18.773Z,70.95
2018-03-14T23:25:47.405Z,70.84
2018-03-14T23:28:15.075Z,70.83
2018-03-14T23:30:42.824Z,70.81
2018-03-14T23:33:11.281Z,71.16
2018-03-14T23:35:39.325Z,71.23
2018-03-14T23:38:07.559Z,71.23
2018-03-14T23:40:35.606Z,71.48
2018-03-14T23:43:03.807Z,71.45
2018-03-14T23:45:31.551Z,71.83
2018-03-14T23:47:59.172Z,71.89
2018-03-14T23:50:26.919Z,71.96
2018-03-14T23:52:54.599Z,72.02
2018-03-14T23:55:22.507Z,71.92
2018-03-14T23:57:50.266Z,71.94
